Alba, TX

7:51 AM CDT on May 06, 2015 (GMT -0500)
Brook Harbor, Lake Fork | | Change Station
CLOSE
Current Station
Personal Weather Station
Location: Yantis, TX
Elevation: 412 ft
Nearby Weather Stations

Elev 412 ft 32.89 °N, 95.53 °W | Updated 2 seconds ago

Overcast
Overcast
68.8 °F
Feels Like 68.8 °F
N
5.0
Wind Variable Wind from ESE
Gusts 11.0 mph

Today
High -- | Low -- °F
--% Chance of Precip.
Yesterday
High -- | Low -- °F
Precip. -- in
6:30 AM 8:07 PM
Waning Gibbous, 94% visible
Pressure 30.00 in
Visibility 5.0 miles
Clouds Few 1400 ft
Scattered Clouds 4700 ft
Mostly Cloudy 11000 ft
Dew Point 66 °F
Humidity 92%
Rainfall 0.00 in
Snow Depth Not available.
UV 0 out of 12
Pollen 4.20 out of 12
Air Quality Not available.
Flu Activity Sporadic
METAR KJDD 061235Z AUTO 00000KT 5SM BR FEW014 SCT047 BKN110 20/20 A3000 RMK AO2

More Conditions Fewer Conditions

Pressure 30.00 in
Visibility 5.0 miles
Clouds Few 1400 ft
Scattered Clouds 4700 ft
Mostly Cloudy 11000 ft
Dew Point 66 °F
Humidity 92%
Rainfall 0.00 in
Snow Depth Not available.
UV 0 out of 12
Pollen 4.20 out of 12
Air Quality Not available.
Flu Activity Sporadic
METAR KJDD 061235Z AUTO 00000KT 5SM BR FEW014 SCT047 BKN110 20/20 A3000 RMK AO2

More Conditions Fewer Conditions

Nowcast | as of 7:26 am CDT on May 6, 2015

Scattered showers will be increasing across the region this morning as precipitation moves eastward out of central and northern Texas as well as southern Oklahoma. Precipitation amounts will be light...mainly less than one tenth of an inch. The activity will continue to weaken in coverage and intensity as the morning continues.

×

10-Day Weather Forecast

Almanac

Astronomy

May. 06, 2015 Rise Set
Actual Time
Civil Twilight
Nautical Twilight
Astronomical Twilight
Moon
Length of Visible Light
Length of Day
Tomorrow will be .
, % of the Moon is Illuminated

Today's Extremes

State Highs State Lows

Community

WunderPhotos

Upload Photos

1,818,884 photos uploaded!

WunderBlogs® & News

Nearby

Air Quality

  Air Quality AQ Index Pollutant
Not available.

Snow Depth

Station Depth Elevation

Earthquake Activity

City Distance Mag. Time & Date
Minimum magnitude displayed is 2.5.

Coastal Water Temperatures

Place Temperature

Stations

Nearby Weather Stations

Station Location Temp. Windchill Dew Point Humidity Wind Precip. Elev Updated Type